createdAt,value
2018-10-21T00:00:17.614Z,58.23
2018-10-21T00:01:24.522Z,58.27
2018-10-21T00:02:31.251Z,58.24
2018-10-21T00:03:38.032Z,58.19
2018-10-21T00:04:44.688Z,58.33
2018-10-21T00:05:52.071Z,58.47
2018-10-21T00:06:58.774Z,58.42
2018-10-21T00:08:05.591Z,58.48
2018-10-21T00:09:12.668Z,58.48
2018-10-21T00:10:19.386Z,58.47
2018-10-21T00:11:26.090Z,58.46
2018-10-21T00:12:32.770Z,58.47
2018-10-21T00:13:40.087Z,58.48
2018-10-21T00:14:46.787Z,58.43
2018-10-21T00:15:54.082Z,58.41
2018-10-21T00:17:00.701Z,58.41
2018-10-21T00:18:08.005Z,58.40
2018-10-21T00:20:21.952Z,58.51
2018-10-21T00:21:28.819Z,58.57
2018-10-21T00:22:35.698Z,58.63
2018-10-21T00:23:42.748Z,58.66
2018-10-21T00:24:49.532Z,58.67
2018-10-21T00:25:56.309Z,58.70
2018-10-21T00:27:03.243Z,58.66
2018-10-21T00:28:10.106Z,58.68
2018-10-21T00:29:16.699Z,58.74
2018-10-21T00:30:23.974Z,58.73
2018-10-21T00:31:30.535Z,58.73
2018-10-21T00:32:38.034Z,58.75
2018-10-21T00:33:44.894Z,58.81
2018-10-21T00:34:52.142Z,58.86
2018-10-21T00:35:58.819Z,58.85
2018-10-21T00:37:06.210Z,58.85
2018-10-21T00:38:12.802Z,58.77
2018-10-21T00:39:20.127Z,58.77
2018-10-21T00:40:26.743Z,58.78
2018-10-21T00:41:33.975Z,58.76
2018-10-21T00:42:40.830Z,58.78
2018-10-21T00:43:47.594Z,58.81
2018-10-21T00:44:54.377Z,58.83
2018-10-21T00:46:01.016Z,58.87
2018-10-21T00:47:08.326Z,58.89
2018-10-21T00:48:14.976Z,59.00
2018-10-21T00:49:22.229Z,59.10
2018-10-21T00:50:28.914Z,59.14
2018-10-21T00:51:35.700Z,59.10
2018-10-21T00:52:42.549Z,59.10
2018-10-21T00:53:49.311Z,59.07
2018-10-21T00:54:55.886Z,59.11
2018-10-21T00:56:03.029Z,59.17
2018-10-21T00:57:09.948Z,59.15
2018-10-21T00:58:16.787Z,59.13
2018-10-21T00:59:23.492Z,59.18
2018-10-21T01:00:30.105Z,59.18
2018-10-21T01:01:37.371Z,59.18
2018-10-21T01:02:43.966Z,59.20
2018-10-21T01:03:51.319Z,59.23
2018-10-21T01:04:58.071Z,59.19
2018-10-21T01:06:04.778Z,59.21
2018-10-21T01:07:11.518Z,59.20
2018-10-21T01:08:18.166Z,59.21
2018-10-21T01:09:25.655Z,59.19
2018-10-21T01:10:32.305Z,59.19
2018-10-21T01:11:39.591Z,59.17
2018-10-21T01:12:46.228Z,59.20
2018-10-21T01:13:53.537Z,59.21
2018-10-21T01:15:00.212Z,59.19
2018-10-21T01:16:07.054Z,59.21
2018-10-21T01:17:13.719Z,59.19
2018-10-21T01:18:20.507Z,59.24
2018-10-21T01:19:27.149Z,59.26
2018-10-21T01:20:34.428Z,59.27
2018-10-21T01:21:40.975Z,59.28
2018-10-21T01:22:48.278Z,59.27
2018-10-21T01:23:55.033Z,59.27
2018-10-21T01:25:01.631Z,59.27
2018-10-21T01:26:08.555Z,59.25
2018-10-21T01:27:15.235Z,59.29
2018-10-21T01:28:22.127Z,59.31
2018-10-21T01:29:28.734Z,59.29
2018-10-21T01:30:35.970Z,59.30
2018-10-21T01:31:42.595Z,59.33
2018-10-21T01:32:49.826Z,59.37
2018-10-21T01:33:56.611Z,59.33
2018-10-21T01:35:03.287Z,59.33
2018-10-21T01:36:10.390Z,59.38
2018-10-21T01:37:17.213Z,59.40
2018-10-21T01:38:23.926Z,59.40
2018-10-21T01:39:30.571Z,59.41
2018-10-21T01:40:37.619Z,59.44
2018-10-21T01:41:44.697Z,59.54
2018-10-21T01:42:51.974Z,59.57
2018-10-21T01:43:58.656Z,59.56
2018-10-21T01:45:05.955Z,59.54
2018-10-21T01:46:12.669Z,59.52
2018-10-21T01:47:19.334Z,59.54
2018-10-21T01:48:26.532Z,59.52
2018-10-21T01:49:33.290Z,59.52
2018-10-21T01:50:40.422Z,59.55
2018-10-21T01:51:47.163Z,59.56
2018-10-21T01:52:54.118Z,59.61
2018-10-21T01:54:00.879Z,59.71
2018-10-21T01:55:07.637Z,59.80
2018-10-21T01:56:14.356Z,59.84
2018-10-21T01:57:21.238Z,59.88
2018-10-21T01:58:28.102Z,59.89
2018-10-21T01:59:35.310Z,59.92
2018-10-21T02:00:41.984Z,59.96
2018-10-21T02:01:49.244Z,59.99
2018-10-21T02:02:55.960Z,60.02
2018-10-21T02:04:04.540Z,60.14
2018-10-21T02:05:10.866Z,60.21
2018-10-21T02:06:16.801Z,60.21
2018-10-21T02:07:23.623Z,60.24
2018-10-21T02:08:30.396Z,60.23
2018-10-21T02:09:37.259Z,60.21
2018-10-21T02:10:44.167Z,60.17
2018-10-21T02:11:50.923Z,60.19
2018-10-21T02:12:58.528Z,60.17
2018-10-21T02:14:04.956Z,60.08
2018-10-21T02:15:11.842Z,60.09
2018-10-21T02:16:18.323Z,60.12
2018-10-21T02:17:25.533Z,60.18
2018-10-21T02:18:32.437Z,60.18
2018-10-21T02:19:39.339Z,60.16
2018-10-21T02:20:46.498Z,60.17
2018-10-21T02:21:52.838Z,60.17
2018-10-21T02:22:59.510Z,60.18
2018-10-21T02:24:06.355Z,60.19
2018-10-21T02:25:13.145Z,60.27
2018-10-21T02:26:19.918Z,60.28
2018-10-21T02:27:26.872Z,60.27
2018-10-21T02:28:33.810Z,60.25
2018-10-21T02:29:40.591Z,60.25
2018-10-21T02:30:47.579Z,60.25
2018-10-21T02:31:54.350Z,60.24
2018-10-21T02:33:01.158Z,60.24
2018-10-21T02:34:08.105Z,60.30
2018-10-21T02:35:15.247Z,60.29
2018-10-21T02:36:22.146Z,60.31
2018-10-21T02:37:28.894Z,60.34
2018-10-21T02:38:35.969Z,60.31
2018-10-21T02:39:42.823Z,60.29
2018-10-21T02:40:49.574Z,60.35
2018-10-21T02:41:56.580Z,60.36
2018-10-21T02:43:04.163Z,60.31
2018-10-21T02:44:10.614Z,60.31
2018-10-21T02:45:17.336Z,60.32
2018-10-21T02:46:24.206Z,60.32
2018-10-21T02:47:31.010Z,60.37
2018-10-21T02:48:37.775Z,60.45
2018-10-21T02:49:45.063Z,60.46
2018-10-21T02:50:51.991Z,60.46
2018-10-21T02:51:58.966Z,60.45
2018-10-21T02:53:05.493Z,60.42
2018-10-21T02:54:12.231Z,60.38
2018-10-21T02:55:19.881Z,60.38
2018-10-21T02:56:26.045Z,60.40
2018-10-21T02:57:33.108Z,60.40
2018-10-21T02:58:41.078Z,60.40
2018-10-21T02:59:46.865Z,60.41
2018-10-21T03:00:53.637Z,60.50
2018-10-21T03:02:00.381Z,60.52
2018-10-21T03:03:07.652Z,60.48
2018-10-21T03:04:14.303Z,60.52
2018-10-21T03:05:21.706Z,60.53
2018-10-21T03:06:27.879Z,60.55
2018-10-21T03:07:34.725Z,60.49
2018-10-21T03:08:41.498Z,60.50
2018-10-21T03:09:48.198Z,60.54
2018-10-21T03:10:55.345Z,60.56
2018-10-21T03:12:02.073Z,60.57
2018-10-21T03:13:09.971Z,60.56
2018-10-21T03:14:15.737Z,60.62
2018-10-21T03:15:22.529Z,60.63
2018-10-21T03:16:29.373Z,60.65
2018-10-21T03:17:36.642Z,60.66
2018-10-21T03:18:43.626Z,60.62
2018-10-21T03:19:50.679Z,60.67
2018-10-21T03:20:57.750Z,60.62
2018-10-21T03:23:11.066Z,60.71
2018-10-21T03:24:18.193Z,60.74
2018-10-21T03:25:25.079Z,60.77
2018-10-21T03:26:31.781Z,60.73
2018-10-21T03:27:39.029Z,60.76
2018-10-21T03:28:45.695Z,60.84
2018-10-21T03:29:52.658Z,60.87
2018-10-21T03:30:59.449Z,60.84
2018-10-21T03:32:06.702Z,60.82
2018-10-21T03:33:13.523Z,60.78
2018-10-21T03:34:20.382Z,60.86
2018-10-21T03:35:27.295Z,60.85
2018-10-21T03:36:34.175Z,60.84
2018-10-21T03:37:41.804Z,60.84
2018-10-21T03:38:47.510Z,60.80
2018-10-21T03:39:54.799Z,60.80
2018-10-21T03:41:01.581Z,60.84
2018-10-21T03:42:08.724Z,60.86
2018-10-21T03:43:15.514Z,60.98
2018-10-21T03:44:22.578Z,61.02
2018-10-21T03:45:29.226Z,60.98
2018-10-21T03:46:36.195Z,60.97
2018-10-21T03:47:43.156Z,61.00
2018-10-21T03:48:50.148Z,60.97
2018-10-21T03:49:57.220Z,60.98
2018-10-21T03:51:04.097Z,60.95
2018-10-21T03:52:10.896Z,60.92
2018-10-21T03:53:17.538Z,60.91
2018-10-21T03:54:24.860Z,60.93
2018-10-21T03:55:31.496Z,60.91
2018-10-21T03:56:38.843Z,60.92
2018-10-21T03:57:45.171Z,60.93
2018-10-21T03:58:52.133Z,60.90
2018-10-21T03:59:58.845Z,60.94
2018-10-21T04:01:05.994Z,60.93
2018-10-21T04:02:12.857Z,60.96
2018-10-21T04:03:20.055Z,60.96
2018-10-21T04:04:26.298Z,60.99
2018-10-21T04:05:33.058Z,60.95
2018-10-21T04:06:40.024Z,61.00
2018-10-21T04:07:46.759Z,61.01
2018-10-21T04:08:53.522Z,61.00
2018-10-21T04:10:00.448Z,60.97
2018-10-21T04:11:07.348Z,60.99
2018-10-21T04:12:14.118Z,60.99
2018-10-21T04:13:20.910Z,60.97
2018-10-21T04:14:27.976Z,61.00
2018-10-21T04:15:34.839Z,60.96
2018-10-21T04:16:41.653Z,61.01
2018-10-21T04:17:48.226Z,61.08
2018-10-21T04:18:55.238Z,61.10
2018-10-21T04:20:02.642Z,61.09
2018-10-21T04:21:09.241Z,61.08
2018-10-21T04:22:16.401Z,61.16
2018-10-21T04:23:23.323Z,61.13
2018-10-21T04:24:29.932Z,61.09
2018-10-21T04:25:36.894Z,61.18
2018-10-21T04:26:43.647Z,61.20
2018-10-21T04:27:50.376Z,61.23
2018-10-21T04:28:57.151Z,61.25
2018-10-21T04:30:03.951Z,61.25
2018-10-21T04:31:11.361Z,61.28
2018-10-21T04:32:17.523Z,61.28
2018-10-21T04:33:25.382Z,61.25
2018-10-21T04:34:31.794Z,61.26
2018-10-21T04:35:38.588Z,61.21
2018-10-21T04:36:45.657Z,61.25
2018-10-21T04:37:52.367Z,61.28
2018-10-21T04:40:03.397Z,61.26
2018-10-21T04:41:10.547Z,61.25
2018-10-21T04:42:16.810Z,61.30
2018-10-21T04:43:23.592Z,61.36
2018-10-21T04:44:30.329Z,61.39
2018-10-21T04:45:39.271Z,61.43
2018-10-21T04:46:44.897Z,61.47
2018-10-21T04:47:51.617Z,61.49
2018-10-21T04:48:58.403Z,61.50
2018-10-21T04:50:05.447Z,61.52
2018-10-21T04:51:12.671Z,61.52
2018-10-21T04:52:19.445Z,61.53
2018-10-21T04:53:26.322Z,61.57
2018-10-21T04:54:33.077Z,61.62
2018-10-21T04:55:39.773Z,61.62
2018-10-21T04:56:46.443Z,61.62
2018-10-21T04:57:53.765Z,61.63
2018-10-21T04:59:00.501Z,61.63
2018-10-21T05:00:07.577Z,61.66
2018-10-21T05:01:14.243Z,61.68
2018-10-21T05:02:21.936Z,61.65
2018-10-21T05:03:28.051Z,61.74
2018-10-21T05:04:35.360Z,61.78
2018-10-21T05:05:42.246Z,61.75
2018-10-21T05:06:48.981Z,61.74
2018-10-21T05:07:55.698Z,61.72
2018-10-21T05:09:02.831Z,61.71
2018-10-21T05:10:09.846Z,61.70
2018-10-21T05:11:16.191Z,61.70
2018-10-21T05:12:23.740Z,61.70
2018-10-21T05:13:30.463Z,61.72
2018-10-21T05:14:37.707Z,61.71
2018-10-21T05:15:44.070Z,61.74
2018-10-21T05:16:50.846Z,61.75
2018-10-21T05:17:57.983Z,61.75
2018-10-21T05:19:04.880Z,61.79
2018-10-21T05:20:11.506Z,61.83
2018-10-21T05:21:18.494Z,61.84
2018-10-21T05:22:25.552Z,61.81
2018-10-21T05:23:32.227Z,61.83
2018-10-21T05:24:39.692Z,61.86
2018-10-21T05:25:46.374Z,61.86
2018-10-21T05:26:53.327Z,61.84
2018-10-21T05:27:59.996Z,61.77
2018-10-21T05:29:06.815Z,61.78
2018-10-21T05:30:13.615Z,61.84
2018-10-21T05:31:20.819Z,61.92
2018-10-21T05:32:27.050Z,61.95
2018-10-21T05:33:34.246Z,61.94
2018-10-21T05:34:41.009Z,61.90
2018-10-21T05:35:47.712Z,61.92
2018-10-21T05:36:54.594Z,61.93
2018-10-21T05:38:01.797Z,61.94
2018-10-21T05:39:09.373Z,61.93
2018-10-21T05:40:15.364Z,61.92
2018-10-21T05:41:22.539Z,61.96
2018-10-21T05:42:29.278Z,61.97
2018-10-21T05:43:36.051Z,61.96
2018-10-21T05:44:42.828Z,61.94
2018-10-21T05:45:49.713Z,61.97
2018-10-21T05:46:56.652Z,61.98
2018-10-21T05:48:03.322Z,62.04
2018-10-21T05:49:10.054Z,62.05
2018-10-21T05:50:16.900Z,62.02
2018-10-21T05:51:24.131Z,62.03
2018-10-21T05:52:30.355Z,62.07
2018-10-21T05:53:37.151Z,62.08
2018-10-21T05:54:43.800Z,62.12
2018-10-21T05:55:51.060Z,62.10
2018-10-21T05:56:57.310Z,62.13
2018-10-21T05:58:04.213Z,62.11
2018-10-21T05:59:11.260Z,62.12
2018-10-21T06:00:17.819Z,62.15
2018-10-21T06:01:24.786Z,62.23
2018-10-21T06:02:32.473Z,62.23
2018-10-21T06:03:38.455Z,62.20
2018-10-21T06:04:45.129Z,62.26
2018-10-21T06:05:52.194Z,62.22
2018-10-21T06:06:59.543Z,62.27
2018-10-21T06:08:05.874Z,62.28
2018-10-21T06:09:13.065Z,62.31
2018-10-21T06:10:19.823Z,62.33
2018-10-21T06:11:26.486Z,62.35
2018-10-21T06:12:34.727Z,62.36
2018-10-21T06:13:40.444Z,62.35
2018-10-21T06:14:47.094Z,62.37
2018-10-21T06:15:54.202Z,62.39
2018-10-21T06:17:01.663Z,62.42
2018-10-21T06:18:07.955Z,62.47
2018-10-21T06:19:15.595Z,62.48
2018-10-21T06:20:22.106Z,62.44
2018-10-21T06:21:28.802Z,62.46
2018-10-21T06:22:36.626Z,62.52
2018-10-21T06:23:42.803Z,62.60
2018-10-21T06:24:49.418Z,62.67
2018-10-21T06:25:56.698Z,62.72
2018-10-21T06:27:03.759Z,62.74
2018-10-21T06:28:10.330Z,62.74
2018-10-21T06:29:17.588Z,62.68
2018-10-21T06:30:24.350Z,62.74
2018-10-21T06:31:31.110Z,62.82
2018-10-21T06:32:38.239Z,62.84
2018-10-21T06:33:45.006Z,62.84
2018-10-21T06:34:52.235Z,62.83
2018-10-21T06:35:59.129Z,62.82
2018-10-21T06:37:06.000Z,62.88
2018-10-21T06:38:12.556Z,62.93
2018-10-21T06:39:19.788Z,62.91
2018-10-21T06:40:26.603Z,62.90
2018-10-21T06:41:33.645Z,62.94
2018-10-21T06:42:40.945Z,62.97
2018-10-21T06:43:47.513Z,62.99
2018-10-21T06:44:55.285Z,63.05
2018-10-21T06:46:01.338Z,63.15
2018-10-21T06:47:08.391Z,63.22
2018-10-21T06:48:15.136Z,63.29
2018-10-21T06:49:22.422Z,63.35
2018-10-21T06:50:29.001Z,63.42
2018-10-21T06:51:36.284Z,63.38
2018-10-21T06:52:42.890Z,63.43
2018-10-21T06:53:50.193Z,63.54
2018-10-21T06:54:57.270Z,63.61
2018-10-21T06:56:04.147Z,63.63
2018-10-21T06:57:10.907Z,63.67
2018-10-21T06:58:18.419Z,63.73
2018-10-21T06:59:25.250Z,63.73
2018-10-21T07:00:31.531Z,63.76
2018-10-21T07:01:38.294Z,63.84
2018-10-21T07:02:45.468Z,63.90
2018-10-21T07:03:52.243Z,63.96
2018-10-21T07:04:58.994Z,64.00
2018-10-21T07:06:06.572Z,64.05
2018-10-21T07:07:13.631Z,64.17
2018-10-21T07:08:20.534Z,64.25
2018-10-21T07:09:26.697Z,64.33
2018-10-21T07:10:33.874Z,64.38
2018-10-21T07:11:42.221Z,64.53
2018-10-21T07:12:47.971Z,64.61
2018-10-21T07:13:55.094Z,64.64
2018-10-21T07:15:01.698Z,64.72
2018-10-21T07:16:09.099Z,64.82
2018-10-21T07:17:15.666Z,64.88
2018-10-21T07:18:22.439Z,64.96
2018-10-21T07:19:29.294Z,65.06
2018-10-21T07:20:36.049Z,65.13
2018-10-21T07:21:42.812Z,65.22
2018-10-21T07:22:49.494Z,65.27
2018-10-21T07:23:56.903Z,65.40
2018-10-21T07:25:03.787Z,65.51
2018-10-21T07:26:10.412Z,65.66
2018-10-21T07:27:17.046Z,65.79
2018-10-21T07:28:25.180Z,65.91
2018-10-21T07:29:31.197Z,66.07
2018-10-21T07:30:38.211Z,66.19
2018-10-21T07:31:45.769Z,66.29
2018-10-21T07:32:52.321Z,66.33
2018-10-21T07:33:59.222Z,66.47
2018-10-21T07:35:06.339Z,66.65
2018-10-21T07:36:12.955Z,66.81
2018-10-21T07:37:19.775Z,66.97
2018-10-21T07:38:26.450Z,67.10
2018-10-21T07:39:33.304Z,67.27
2018-10-21T07:40:40.583Z,67.43
2018-10-21T07:41:46.727Z,67.55
2018-10-21T07:42:53.527Z,67.70
2018-10-21T07:44:00.233Z,67.85
2018-10-21T07:45:07.233Z,67.98
2018-10-21T07:46:14.146Z,68.14
2018-10-21T07:47:20.973Z,68.31
2018-10-21T07:48:27.775Z,68.49
2018-10-21T07:49:34.631Z,68.64
2018-10-21T07:50:41.598Z,68.82
2018-10-21T07:51:48.645Z,69.01
2018-10-21T07:52:55.300Z,69.16
2018-10-21T07:54:02.527Z,69.35
2018-10-21T07:55:09.693Z,69.52
2018-10-21T07:56:16.923Z,69.70
2018-10-21T07:57:23.709Z,69.88
2018-10-21T07:58:30.596Z,70.06
2018-10-21T07:59:37.420Z,70.22
2018-10-21T08:00:44.060Z,70.36
2018-10-21T08:01:51.268Z,70.53
2018-10-21T08:02:58.126Z,70.70
2018-10-21T08:04:04.992Z,70.87
2018-10-21T08:05:11.653Z,71.08
2018-10-21T08:06:18.523Z,71.31
2018-10-21T08:07:25.416Z,71.49
2018-10-21T08:08:32.809Z,71.61
2018-10-21T08:09:39.339Z,71.74
2018-10-21T08:10:46.359Z,71.96
2018-10-21T08:11:53.427Z,72.14
2018-10-21T08:13:00.253Z,72.33
2018-10-21T08:14:07.130Z,72.54
2018-10-21T08:15:14.164Z,72.74
2018-10-21T08:16:21.071Z,72.91
2018-10-21T08:17:27.922Z,73.07
2018-10-21T08:18:34.803Z,73.27
2018-10-21T08:19:41.463Z,73.49
2018-10-21T08:20:49.038Z,73.69
2018-10-21T08:21:55.836Z,73.86
2018-10-21T08:23:02.876Z,74.05
2018-10-21T08:24:09.213Z,74.29
2018-10-21T08:25:16.704Z,74.46
2018-10-21T08:26:22.971Z,74.68
2018-10-21T08:27:29.839Z,74.87
2018-10-21T08:28:36.712Z,75.13
2018-10-21T08:29:43.390Z,75.33
2018-10-21T08:30:50.166Z,75.54
2018-10-21T08:31:56.901Z,75.71
2018-10-21T08:33:03.546Z,75.88
2018-10-21T08:34:10.765Z,76.03
2018-10-21T08:35:18.211Z,76.22
2018-10-21T08:36:24.772Z,76.40
2018-10-21T08:37:31.496Z,76.60
2018-10-21T08:38:38.241Z,76.77
2018-10-21T08:39:44.982Z,76.95
2018-10-21T08:40:51.931Z,77.14
2018-10-21T08:41:58.582Z,77.32
2018-10-21T08:43:05.358Z,77.47
2018-10-21T08:44:12.176Z,77.68
2018-10-21T08:45:19.254Z,77.83
2018-10-21T08:46:28.122Z,78.02
2018-10-21T08:47:33.138Z,78.21
2018-10-21T08:48:39.937Z,78.39
2018-10-21T08:49:46.904Z,78.59
2018-10-21T08:50:53.781Z,78.75
2018-10-21T08:52:00.659Z,78.91
2018-10-21T08:53:07.357Z,79.11
2018-10-21T08:54:14.244Z,79.28
2018-10-21T08:55:21.020Z,79.48
2018-10-21T08:56:27.789Z,79.66
2018-10-21T08:57:34.639Z,79.85
2018-10-21T08:58:41.291Z,80.01
2018-10-21T08:59:48.242Z,80.15
2018-10-21T09:00:55.215Z,80.36
2018-10-21T09:02:02.020Z,80.53
2018-10-21T09:03:08.773Z,80.70
2018-10-21T09:04:15.447Z,80.89
2018-10-21T09:05:23.793Z,81.07
2018-10-21T09:06:29.978Z,81.24
2018-10-21T09:07:36.719Z,81.40
2018-10-21T09:08:43.492Z,81.55
2018-10-21T09:09:50.546Z,81.70
2018-10-21T09:10:57.190Z,81.86
2018-10-21T09:12:03.822Z,82.04
2018-10-21T09:13:11.207Z,82.21
2018-10-21T09:14:17.842Z,82.38
2018-10-21T09:15:24.594Z,82.52
2018-10-21T09:16:34.113Z,82.70
2018-10-21T09:17:38.279Z,82.86
2018-10-21T09:18:44.822Z,83.00
2018-10-21T09:19:52.131Z,83.15
2018-10-21T09:20:59.093Z,83.31
2018-10-21T09:22:06.239Z,83.45
2018-10-21T09:23:12.897Z,83.63
2018-10-21T09:24:20.472Z,83.76
2018-10-21T09:25:27.370Z,83.91
2018-10-21T09:26:34.301Z,84.04
2018-10-21T09:27:40.952Z,84.19
2018-10-21T09:28:47.904Z,84.28
2018-10-21T09:29:54.854Z,84.43
2018-10-21T09:31:01.651Z,84.55
2018-10-21T09:32:08.883Z,84.69
2018-10-21T09:33:15.665Z,84.80
2018-10-21T09:34:22.372Z,84.96
2018-10-21T09:35:29.181Z,85.08
2018-10-21T09:36:36.278Z,85.18
2018-10-21T09:37:43.054Z,85.33
2018-10-21T09:38:50.386Z,85.43
2018-10-21T09:39:57.270Z,85.56
2018-10-21T09:41:04.145Z,85.68
2018-10-21T09:42:10.819Z,85.77
2018-10-21T09:43:18.058Z,85.85
2018-10-21T09:44:24.751Z,85.88
2018-10-21T09:45:31.805Z,85.96
2018-10-21T09:46:38.954Z,86.00
2018-10-21T09:47:45.444Z,86.03
2018-10-21T09:48:52.391Z,86.06
2018-10-21T09:49:59.441Z,86.11
2018-10-21T09:51:06.591Z,86.13
2018-10-21T09:52:13.214Z,86.17
2018-10-21T09:53:20.388Z,86.15
2018-10-21T09:54:27.055Z,86.15
2018-10-21T09:55:34.212Z,86.20
2018-10-21T09:56:41.421Z,86.20
2018-10-21T09:57:48.147Z,86.18
2018-10-21T09:58:55.197Z,86.20
2018-10-21T10:00:01.851Z,86.20
2018-10-21T10:01:09.028Z,86.16
2018-10-21T10:02:15.611Z,86.03
2018-10-21T10:03:22.581Z,85.96
2018-10-21T10:04:29.679Z,85.90
2018-10-21T10:05:36.403Z,85.83
2018-10-21T10:06:43.654Z,85.72
2018-10-21T10:07:49.945Z,85.62
2018-10-21T10:08:56.793Z,85.50
2018-10-21T10:10:03.832Z,85.35
2018-10-21T10:11:10.799Z,85.29
2018-10-21T10:12:18.057Z,85.32
2018-10-21T10:13:24.432Z,85.32
2018-10-21T10:14:31.368Z,85.30
2018-10-21T10:15:38.264Z,85.33
2018-10-21T10:16:44.986Z,85.28
2018-10-21T10:17:52.392Z,85.22
2018-10-21T10:18:59.067Z,85.26
2018-10-21T10:20:06.103Z,85.28
2018-10-21T10:21:13.047Z,85.18
2018-10-21T10:22:19.870Z,84.96
2018-10-21T10:23:26.789Z,84.87
2018-10-21T10:24:33.782Z,84.64
2018-10-21T10:25:40.676Z,84.49
2018-10-21T10:26:47.399Z,84.50
2018-10-21T10:27:54.717Z,84.32
2018-10-21T10:29:01.361Z,84.33
2018-10-21T10:30:08.519Z,84.16
2018-10-21T10:31:15.514Z,84.19
2018-10-21T10:32:22.630Z,84.13
2018-10-21T10:33:29.537Z,84.04
2018-10-21T10:34:35.766Z,84.00
2018-10-21T10:35:42.435Z,83.88
2018-10-21T10:36:49.936Z,83.80
2018-10-21T10:37:57.702Z,83.61
2018-10-21T10:39:03.567Z,83.44
2018-10-21T10:40:10.470Z,83.41
2018-10-21T10:41:17.643Z,83.25
2018-10-21T10:42:24.287Z,83.02
2018-10-21T10:43:31.388Z,82.84
2018-10-21T10:44:38.164Z,82.77
2018-10-21T10:45:44.913Z,82.56
2018-10-21T10:46:51.905Z,82.37
2018-10-21T10:47:58.825Z,82.16
2018-10-21T10:49:05.759Z,82.18
2018-10-21T10:50:12.759Z,82.10
2018-10-21T10:51:19.662Z,82.07
2018-10-21T10:52:26.205Z,82.04
2018-10-21T10:53:32.950Z,82.04
2018-10-21T10:54:39.706Z,81.94
2018-10-21T10:55:46.419Z,81.58
2018-10-21T10:56:54.273Z,81.44
2018-10-21T10:58:00.599Z,81.25
2018-10-21T10:59:07.756Z,81.13
2018-10-21T11:00:14.474Z,80.83
2018-10-21T11:01:22.173Z,80.74
2018-10-21T11:02:28.792Z,80.73
2018-10-21T11:03:35.593Z,80.51
2018-10-21T11:04:45.960Z,80.20
2018-10-21T11:05:49.302Z,80.06
2018-10-21T11:06:56.416Z,79.84
2018-10-21T11:08:02.866Z,79.54
2018-10-21T11:09:09.749Z,79.51
2018-10-21T11:10:16.724Z,79.25
2018-10-21T11:11:23.537Z,79.22
2018-10-21T11:12:30.221Z,78.87
2018-10-21T11:13:37.638Z,78.61
2018-10-21T11:14:44.523Z,78.50
2018-10-21T11:15:51.293Z,78.22
2018-10-21T11:16:58.448Z,78.04
2018-10-21T11:18:05.176Z,77.84
2018-10-21T11:19:12.117Z,77.56
2018-10-21T11:20:18.922Z,77.45
2018-10-21T11:21:25.870Z,77.43
2018-10-21T11:22:32.723Z,77.38
2018-10-21T11:23:39.589Z,76.98
2018-10-21T11:24:46.518Z,76.64
2018-10-21T11:25:53.362Z,76.38
2018-10-21T11:27:00.623Z,76.42
2018-10-21T11:28:07.803Z,76.20
2018-10-21T11:29:14.768Z,76.05
2018-10-21T11:30:21.991Z,76.04
2018-10-21T11:31:28.994Z,75.72
2018-10-21T11:32:36.045Z,75.51
2018-10-21T11:33:43.109Z,75.42
2018-10-21T11:34:50.026Z,75.28
2018-10-21T11:35:56.529Z,75.12
2018-10-21T11:37:03.716Z,74.86
2018-10-21T11:38:10.835Z,74.66
2018-10-21T11:39:17.959Z,74.34
2018-10-21T11:40:24.486Z,73.99
2018-10-21T11:41:31.831Z,73.88
2018-10-21T11:42:38.793Z,73.82
2018-10-21T11:43:46.045Z,73.62
2018-10-21T11:44:52.689Z,73.53
2018-10-21T11:45:59.891Z,73.45
2018-10-21T11:47:06.955Z,73.43
2018-10-21T11:48:15.138Z,73.21
2018-10-21T11:49:20.450Z,73.20
2018-10-21T11:50:27.578Z,73.02
2018-10-21T11:51:34.679Z,72.75
2018-10-21T11:52:41.676Z,72.63
2018-10-21T11:53:48.174Z,72.51
2018-10-21T11:54:55.342Z,72.18
2018-10-21T11:56:02.571Z,72.06
2018-10-21T11:57:09.265Z,71.82
2018-10-21T11:58:16.112Z,71.59
2018-10-21T11:59:22.984Z,71.50
2018-10-21T12:00:29.680Z,71.31
2018-10-21T12:01:36.722Z,71.38
2018-10-21T12:02:43.211Z,71.27
2018-10-21T12:03:50.197Z,71.00
2018-10-21T12:04:56.947Z,70.68
2018-10-21T12:06:03.846Z,70.48
2018-10-21T12:07:11.345Z,70.56
2018-10-21T12:08:17.727Z,70.26
2018-10-21T12:09:24.798Z,70.05
2018-10-21T12:10:31.966Z,70.05
2018-10-21T12:11:38.786Z,69.98
2018-10-21T12:12:45.587Z,69.56
2018-10-21T12:13:52.561Z,69.43
2018-10-21T12:14:59.329Z,69.38
2018-10-21T12:16:06.787Z,68.98
2018-10-21T12:17:13.772Z,69.02
2018-10-21T12:18:20.953Z,68.87
2018-10-21T12:19:27.513Z,68.59
2018-10-21T12:20:34.260Z,68.39
2018-10-21T12:21:41.090Z,68.15
2018-10-21T12:22:47.955Z,67.92
2018-10-21T12:23:55.348Z,67.74
2018-10-21T12:25:02.265Z,67.74
2018-10-21T12:26:08.895Z,67.59
2018-10-21T12:27:15.779Z,67.40
2018-10-21T12:28:22.614Z,67.03
2018-10-21T12:29:29.198Z,67.09
2018-10-21T12:30:36.428Z,67.04
2018-10-21T12:31:44.260Z,66.89
2018-10-21T12:32:50.018Z,66.64
2018-10-21T12:33:57.114Z,66.43
2018-10-21T12:35:03.548Z,66.35
2018-10-21T12:36:10.423Z,66.21
2018-10-21T12:37:17.195Z,65.91
2018-10-21T12:38:24.772Z,65.77
2018-10-21T12:39:31.662Z,65.37
2018-10-21T12:40:38.510Z,65.11
2018-10-21T12:41:45.246Z,65.12
2018-10-21T12:42:52.257Z,65.03
2018-10-21T12:43:59.402Z,65.01
2018-10-21T12:45:05.859Z,64.83
2018-10-21T12:46:12.659Z,64.83
2018-10-21T12:47:19.282Z,64.77
2018-10-21T12:48:26.450Z,64.64
2018-10-21T12:49:33.254Z,64.50
2018-10-21T12:50:40.128Z,64.34
2018-10-21T12:51:46.730Z,64.30
2018-10-21T12:52:53.686Z,64.22
2018-10-21T12:54:00.524Z,64.03
2018-10-21T12:55:08.100Z,63.79
2018-10-21T12:56:14.206Z,63.79
2018-10-21T12:57:21.097Z,63.70
2018-10-21T12:58:27.949Z,63.63
2018-10-21T12:59:34.689Z,63.54
2018-10-21T13:00:41.355Z,63.14
2018-10-21T13:01:48.535Z,62.98
2018-10-21T13:02:55.316Z,62.78
2018-10-21T13:04:01.917Z,62.81
2018-10-21T13:05:08.709Z,62.73
2018-10-21T13:06:15.302Z,62.57
2018-10-21T13:07:22.571Z,62.30
2018-10-21T13:08:30.692Z,62.19
2018-10-21T13:09:36.509Z,62.30
2018-10-21T13:10:44.594Z,62.17
2018-10-21T13:11:50.761Z,61.98
2018-10-21T13:12:57.546Z,61.92
2018-10-21T13:14:03.666Z,61.75
2018-10-21T13:15:10.838Z,61.77
2018-10-21T13:16:18.210Z,61.70
2018-10-21T13:17:24.866Z,61.65
2018-10-21T13:18:31.928Z,61.46
2018-10-21T13:19:39.316Z,61.32
2018-10-21T13:20:46.213Z,61.21
2018-10-21T13:21:54.028Z,61.03
2018-10-21T13:23:00.265Z,60.74
2018-10-21T13:24:07.098Z,60.71
2018-10-21T13:25:14.166Z,60.50
2018-10-21T13:26:21.354Z,60.24
2018-10-21T13:27:28.226Z,60.08
2018-10-21T13:28:35.528Z,60.11
2018-10-21T13:29:42.376Z,59.68
2018-10-21T13:30:49.487Z,59.53
2018-10-21T13:31:56.006Z,59.62
2018-10-21T13:33:03.199Z,59.44
2018-10-21T13:34:10.038Z,59.31
2018-10-21T13:35:16.758Z,59.55
2018-10-21T13:36:23.892Z,59.36
2018-10-21T13:37:30.503Z,59.19
2018-10-21T13:38:37.656Z,59.03
2018-10-21T13:39:44.530Z,59.25
2018-10-21T13:40:51.974Z,59.17
2018-10-21T13:41:58.855Z,59.11
2018-10-21T13:43:05.733Z,59.07
2018-10-21T13:44:12.587Z,58.90
2018-10-21T13:45:19.133Z,58.94
2018-10-21T13:46:26.334Z,59.04
2018-10-21T13:47:32.938Z,58.85
2018-10-21T13:48:40.263Z,58.76
2018-10-21T13:49:46.923Z,58.39
2018-10-21T13:50:54.118Z,58.12
2018-10-21T13:52:01.269Z,57.78
2018-10-21T13:53:07.969Z,57.58
2018-10-21T13:54:14.635Z,57.44
2018-10-21T13:55:21.862Z,57.26
2018-10-21T13:56:28.626Z,57.07
2018-10-21T13:57:35.630Z,57.10
2018-10-21T13:58:43.475Z,56.97
2018-10-21T13:59:49.558Z,56.65
2018-10-21T14:00:56.237Z,56.54
2018-10-21T14:02:02.939Z,56.26
2018-10-21T14:03:09.744Z,56.26
2018-10-21T14:04:16.928Z,56.12
2018-10-21T14:05:23.356Z,56.13
2018-10-21T14:06:30.062Z,55.84
2018-10-21T14:07:36.883Z,55.91
2018-10-21T14:08:43.545Z,55.81
2018-10-21T14:09:50.863Z,55.72
2018-10-21T14:10:57.725Z,55.66
2018-10-21T14:12:04.458Z,55.60
2018-10-21T14:13:11.268Z,55.64
2018-10-21T14:14:18.025Z,55.43
2018-10-21T14:15:24.898Z,55.31
2018-10-21T14:16:31.702Z,55.28
2018-10-21T14:17:38.729Z,55.16
2018-10-21T14:18:45.554Z,54.95
2018-10-21T14:19:52.207Z,54.72
2018-10-21T14:20:58.886Z,54.64
2018-10-21T14:22:06.120Z,54.75
2018-10-21T14:23:12.846Z,54.70
2018-10-21T14:24:19.737Z,54.59